Time;durP1;ratioP1;P1;durP2;ratioP2;P2;SDS_P1;SDS_P2;PMS_P1;PMS_P2;Temp;Humidity;BMP_temperature;BMP_pressure;BME280_temperature;BME280_humidity;BME280_pressure;Samples;Min_cycle;Max_cycle;Signal;HPM_P1;HPM_P2
2024/04/11 00:04:45;;;;;;;1.85;0.30;;;7.80;99.90;;;;;;22554810;26;20042;-39
2024/04/11 00:14:49;;;;;;;1.55;0.20;;;7.70;99.90;;;;;;22615520;26;20124;-39
2024/04/11 00:24:51;;;;;;;1.08;0.20;;;7.70;99.90;;;;;;22645049;26;20564;-39
2024/04/11 00:34:53;;;;;;;0.68;0.30;;;7.80;99.90;;;;;;22682286;26;20034;-38
2024/04/11 00:44:55;;;;;;;1.27;0.30;;;7.80;99.90;;;;;;22644060;26;20007;-38
2024/04/11 00:54:57;;;;;;;1.23;0.50;;;8.20;99.90;;;;;;22612863;26;20080;-38
2024/04/11 01:05:00;;;;;;;2.38;0.70;;;8.50;99.90;;;;;;22681261;26;20026;-38
2024/04/11 01:15:02;;;;;;;1.42;0.40;;;8.60;99.90;;;;;;22621809;26;20039;-38
2024/04/11 01:25:08;;;;;;;2.95;0.38;;;8.20;99.90;;;;;;22563766;26;20031;-38
2024/04/11 01:35:10;;;;;;;0.93;0.32;;;8.10;99.90;;;;;;22569988;26;20030;-37
2024/04/11 01:45:12;;;;;;;1.33;0.63;;;7.70;99.90;;;;;;22711053;26;20073;-37
2024/04/11 01:55:14;;;;;;;0.75;0.20;;;7.60;99.90;;;;;;22656340;26;20487;-38
2024/04/11 02:05:20;;;;;;;2.35;0.40;;;7.70;99.90;;;;;;22569167;26;20026;-38
2024/04/11 02:15:27;;;;;;;0.77;0.30;;;7.90;99.90;;;;;;22562873;26;20088;-38
2024/04/11 02:25:29;;;;;;;2.70;0.50;;;8.00;99.90;;;;;;22615651;26;20030;-38
2024/04/11 02:35:32;;;;;;;2.92;0.60;;;8.20;99.90;;;;;;22616516;26;20069;-38
2024/04/11 02:45:37;;;;;;;2.20;0.50;;;8.10;99.90;;;;;;22571735;26;20031;-38
2024/04/11 02:55:40;;;;;;;0.60;0.40;;;8.10;99.90;;;;;;22613686;26;20038;-38
2024/04/11 03:05:41;;;;;;;3.33;0.50;;;8.00;99.90;;;;;;22571075;26;20027;-38
2024/04/11 03:15:44;;;;;;;2.50;0.77;;;7.90;99.90;;;;;;22523189;26;20088;-38
2024/04/11 03:25:46;;;;;;;2.05;0.80;;;8.10;99.90;;;;;;22647906;26;20027;-38
2024/04/11 03:35:56;;;;;;;0.95;0.60;;;8.10;99.90;;;;;;22703088;26;20364;-38
2024/04/11 03:46:11;;;;;;;3.07;0.80;;;8.00;99.90;;;;;;22619653;26;20729;-38
2024/04/11 03:56:18;;;;;;;2.92;0.90;;;8.10;99.90;;;;;;22665132;26;20073;-38
2024/04/11 04:06:21;;;;;;;2.00;1.00;;;8.00;99.90;;;;;;22684497;26;20026;-38
2024/04/11 04:16:23;;;;;;;1.90;0.82;;;7.60;99.90;;;;;;22682471;26;20148;-38
2024/04/11 04:26:30;;;;;;;1.85;0.82;;;7.50;99.90;;;;;;22636796;26;20100;-38
2024/04/11 04:36:39;;;;;;;1.52;0.80;;;7.90;99.90;;;;;;22714740;26;20121;-38
2024/04/11 04:46:41;;;;;;;2.80;0.98;;;8.00;99.90;;;;;;22671918;26;20027;-38
2024/04/11 04:56:45;;;;;;;3.58;0.93;;;7.70;99.90;;;;;;22669058;26;20026;-38
2024/04/11 05:06:49;;;;;;;2.45;1.00;;;7.90;99.90;;;;;;22543944;26;20031;-38
2024/04/11 05:16:52;;;;;;;2.42;0.93;;;8.10;99.90;;;;;;22562651;26;20466;-38
2024/04/11 05:26:55;;;;;;;2.83;0.95;;;8.30;99.90;;;;;;22672799;26;20088;-38
2024/04/11 05:36:57;;;;;;;2.47;1.00;;;8.90;99.90;;;;;;22601710;26;20443;-38
2024/04/11 05:46:59;;;;;;;1.17;0.65;;;9.20;99.90;;;;;;22557505;26;20036;-39
2024/04/11 05:57:01;;;;;;;6.53;2.30;;;9.40;99.90;;;;;;22558691;26;20031;-39
2024/04/11 06:07:03;;;;;;;3.08;1.27;;;9.60;99.90;;;;;;22556433;26;20031;-40
2024/04/11 06:17:07;;;;;;;2.85;0.90;;;9.80;99.90;;;;;;22527902;26;20031;-39
2024/04/11 06:27:09;;;;;;;2.83;0.80;;;10.30;99.90;;;;;;22554675;26;20030;-40
2024/04/11 06:37:11;;;;;;;1.88;0.60;;;10.40;99.90;;;;;;22567005;26;20427;-39
2024/04/11 06:47:19;;;;;;;1.23;0.65;;;10.50;99.90;;;;;;22549650;26;20031;-39
2024/04/11 06:57:22;;;;;;;2.63;0.63;;;11.10;99.90;;;;;;22539157;26;20047;-39
2024/04/11 07:07:27;;;;;;;1.45;0.50;;;11.90;99.90;;;;;;22550121;26;20030;-41
2024/04/11 07:17:29;;;;;;;0.90;0.40;;;12.40;99.90;;;;;;22553900;26;20034;-41
2024/04/11 07:27:32;;;;;;;0.98;0.50;;;13.00;99.90;;;;;;22548209;26;20082;-41
2024/04/11 07:37:35;;;;;;;2.20;0.50;;;13.60;99.90;;;;;;22255275;26;20011;-40
2024/04/11 07:47:37;;;;;;;3.78;0.70;;;14.20;99.90;;;;;;22278284;26;20036;-40
2024/04/11 07:57:42;;;;;;;3.92;0.80;;;14.60;99.90;;;;;;22223912;26;20032;-41
2024/04/11 08:07:44;;;;;;;1.63;0.47;;;15.00;99.90;;;;;;22251090;26;20036;-41
2024/04/11 08:17:47;;;;;;;1.65;0.50;;;15.20;99.90;;;;;;22250087;26;20048;-42
2024/04/11 08:27:49;;;;;;;1.35;0.50;;;15.70;99.90;;;;;;22258253;26;20025;-44
2024/04/11 08:37:51;;;;;;;1.48;0.50;;;16.00;99.90;;;;;;22517624;26;20030;-43
2024/04/11 08:47:53;;;;;;;2.03;0.80;;;16.20;99.90;;;;;;22494887;26;20023;-42
2024/04/11 08:57:55;;;;;;;1.20;0.50;;;16.40;99.90;;;;;;22527218;26;20031;-42
2024/04/11 09:07:59;;;;;;;1.48;0.50;;;16.50;99.30;;;;;;22529835;26;20058;-43
2024/04/11 09:18:02;;;;;;;1.70;0.50;;;16.50;97.20;;;;;;22528691;26;20026;-42
2024/04/11 09:28:04;;;;;;;4.93;0.95;;;16.70;99.90;;;;;;22516126;26;20026;-42
2024/04/11 09:38:12;;;;;;;3.65;0.80;;;17.20;98.70;;;;;;22461364;26;20036;-41
2024/04/11 09:48:29;;;;;;;1.80;0.82;;;17.30;98.70;;;;;;22497895;26;20497;-41
2024/04/11 09:58:38;;;;;;;1.80;0.73;;;17.40;99.90;;;;;;22521625;26;20054;-41
2024/04/11 10:08:42;;;;;;;;;;;17.80;99.10;;;;;;22506602;26;20035;-39
2024/04/11 10:18:51;;;;;;;2.80;1.08;;;17.90;98.50;;;;;;22528590;26;19948;-41
2024/04/11 10:28:56;;;;;;;1.88;1.05;;;18.00;99.00;;;;;;22508830;26;20038;-42
2024/04/11 10:39:08;;;;;;;4.20;1.05;;;18.00;98.40;;;;;;22555527;26;20101;-41
2024/04/11 10:49:15;;;;;;;1.92;0.98;;;18.20;99.80;;;;;;22553161;26;20120;-42
2024/04/11 10:59:22;;;;;;;3.28;1.13;;;18.60;99.90;;;;;;22552060;26;20030;-42
2024/04/11 11:09:30;;;;;;;0.93;0.65;;;18.70;99.90;;;;;;22551346;26;20338;-41
2024/04/11 11:19:34;;;;;;;1.83;0.90;;;19.10;98.00;;;;;;22550248;26;20030;-38
2024/04/11 11:29:42;;;;;;;1.38;1.02;;;19.00;99.20;;;;;;22552659;26;20509;-40
2024/04/11 11:39:43;;;;;;;2.70;1.10;;;18.90;99.90;;;;;;22554750;26;20069;-41
2024/04/11 11:49:51;;;;;;;4.28;1.10;;;19.10;99.90;;;;;;22548500;26;20100;-41
2024/04/11 11:59:53;;;;;;;3.10;1.27;;;19.10;98.00;;;;;;22544477;26;20035;-42
2024/04/11 12:10:12;;;;;;;2.70;1.15;;;19.00;98.70;;;;;;22523812;26;20097;-41
2024/04/11 12:20:15;;;;;;;;;;;19.20;99.90;;;;;;22538063;26;20374;-43
2024/04/11 12:30:22;;;;;;;3.22;1.50;;;19.70;99.90;;;;;;22560495;26;19948;-41
2024/04/11 12:40:33;;;;;;;3.25;1.80;;;19.40;98.20;;;;;;22564312;26;20096;-42
2024/04/11 12:50:36;;;;;;;3.47;2.38;;;19.20;98.60;;;;;;22564554;26;20030;-43
2024/04/11 13:00:44;;;;;;;6.13;2.20;;;19.40;99.90;;;;;;22556393;26;20035;-41
2024/04/11 13:10:49;;;;;;;3.97;2.30;;;19.50;97.80;;;;;;22561339;26;20034;-43
2024/04/11 13:20:52;;;;;;;4.85;2.20;;;19.80;99.40;;;;;;22560728;26;20042;-43
2024/04/11 13:30:57;;;;;;;5.05;2.45;;;20.10;99.60;;;;;;22553386;26;20067;-40
2024/04/11 13:51:03;;;;;;;4.15;2.42;;;19.80;99.20;;;;;;22558389;26;20023;-42
2024/04/11 14:01:05;;;;;;;8.10;2.97;;;19.70;99.90;;;;;;22554262;26;20078;-43
2024/04/11 14:11:09;;;;;;;6.03;2.83;;;19.50;99.90;;;;;;22555864;26;20007;-41
2024/04/11 14:31:31;;;;;;;6.68;4.05;;;19.10;98.70;;;;;;22555517;26;20030;-40
2024/04/11 14:41:36;;;;;;;6.57;3.45;;;18.80;98.40;;;;;;22523973;26;20355;-41
2024/04/11 14:51:44;;;;;;;4.18;3.20;;;18.60;99.80;;;;;;22522336;26;20034;-41
2024/04/11 15:01:53;;;;;;;;;;;18.60;99.90;;;;;;22550660;26;20031;-41
2024/04/11 15:12:13;;;;;;;6.50;4.00;;;18.20;99.10;;;;;;22513258;26;19965;-41
2024/04/11 15:22:22;;;;;;;4.38;3.90;;;17.60;99.90;;;;;;22517229;26;20003;-41
2024/04/11 15:32:32;;;;;;;8.07;4.82;;;17.00;99.90;;;;;;22534258;26;20164;-40
2024/04/11 15:42:34;;;;;;;5.45;4.00;;;16.40;99.90;;;;;;22551493;26;20443;-39
2024/04/11 15:52:36;;;;;;;5.95;4.18;;;15.80;99.90;;;;;;22541975;26;20440;-39
2024/04/11 16:02:44;;;;;;;5.20;4.40;;;15.40;99.90;;;;;;22544653;26;20554;-39
2024/04/11 16:12:47;;;;;;;5.35;4.43;;;15.00;99.90;;;;;;22546662;26;20031;-39
2024/04/11 16:22:51;;;;;;;6.40;4.13;;;14.30;99.90;;;;;;22550957;26;20369;-39
2024/04/11 16:32:53;;;;;;;8.82;4.85;;;13.70;99.90;;;;;;22547029;26;20499;-39
2024/04/11 16:42:55;;;;;;;7.00;4.43;;;13.20;99.90;;;;;;22513485;26;20874;-39
2024/04/11 16:52:57;;;;;;;9.75;4.90;;;12.80;99.90;;;;;;22584513;26;20375;-39
2024/04/11 17:02:59;;;;;;;11.30;5.85;;;12.30;99.90;;;;;;22561677;26;20034;-39
2024/04/11 17:13:01;;;;;;;7.53;5.25;;;11.90;99.90;;;;;;22619960;26;20046;-38
2024/04/11 17:23:05;;;;;;;9.32;5.63;;;11.40;99.90;;;;;;22613974;26;20050;-38
2024/04/11 17:33:19;;;;;;;9.10;5.10;;;11.00;99.90;;;;;;22618952;26;20031;-38
2024/04/11 17:43:27;;;;;;;10.30;5.68;;;10.70;99.90;;;;;;22662016;26;20381;-38
2024/04/11 17:53:32;;;;;;;6.10;3.88;;;10.30;99.90;;;;;;22657808;26;20006;-39
2024/04/11 18:03:40;;;;;;;4.72;2.67;;;10.00;99.90;;;;;;22615944;26;20080;-38
2024/04/11 18:13:42;;;;;;;7.30;5.03;;;10.60;99.90;;;;;;22695950;26;20033;-39
2024/04/11 18:23:44;;;;;;;7.50;3.67;;;10.90;99.90;;;;;;22709059;26;20030;-39
2024/04/11 18:33:49;;;;;;;4.80;3.10;;;10.20;99.90;;;;;;22673849;26;20411;-39
2024/04/11 18:43:57;;;;;;;7.30;4.53;;;9.80;99.90;;;;;;22697987;26;20069;-38
2024/04/11 18:54:00;;;;;;;5.45;3.17;;;9.60;99.90;;;;;;22654572;26;20456;-38
2024/04/11 19:04:02;;;;;;;6.20;3.00;;;9.40;99.90;;;;;;22650326;26;20026;-38
2024/04/11 19:14:06;;;;;;;5.07;2.45;;;9.30;99.90;;;;;;22699084;26;20037;-39
2024/04/11 19:24:14;;;;;;;6.28;2.33;;;9.30;99.90;;;;;;22703985;26;20026;-39
2024/04/11 19:34:24;;;;;;;4.40;2.80;;;9.40;99.90;;;;;;22703836;26;20022;-39
2024/04/11 19:44:26;;;;;;;6.87;3.13;;;9.50;99.90;;;;;;22545676;26;20558;-39
2024/04/11 19:54:31;;;;;;;6.93;3.40;;;9.70;99.90;;;;;;22595614;26;20360;-38
2024/04/11 20:04:36;;;;;;;5.90;3.38;;;9.80;99.90;;;;;;22703461;26;20030;-38
2024/04/11 20:14:49;;;;;;;6.68;3.25;;;9.80;99.90;;;;;;22670005;26;20088;-38
2024/04/11 20:24:55;;;;;;;4.85;3.40;;;9.60;99.90;;;;;;22652048;26;20002;-39
2024/04/11 20:45:32;;;;;;;5.97;3.45;;;9.30;99.90;;;;;;22035689;26;20006;-39
2024/04/11 21:37:02;;;;;;;5.35;3.15;;;9.00;99.90;;;;;;22684655;26;20064;-38
2024/04/11 21:47:04;;;;;;;4.45;2.78;;;8.90;99.90;;;;;;22560029;26;20034;-39
2024/04/11 21:57:06;;;;;;;6.88;2.72;;;9.00;99.90;;;;;;22585004;26;20104;-39
2024/04/11 22:07:12;;;;;;;6.50;2.90;;;9.00;99.90;;;;;;22568353;26;20030;-39
2024/04/11 22:17:20;;;;;;;5.18;2.63;;;9.00;99.90;;;;;;22601588;26;20027;-38
2024/04/11 22:27:30;;;;;;;7.68;3.28;;;8.80;99.90;;;;;;22615859;26;20069;-39
2024/04/11 22:37:32;;;;;;;5.00;2.57;;;8.80;99.90;;;;;;22463147;26;20032;-38
2024/04/11 22:47:37;;;;;;;8.45;2.40;;;9.00;99.90;;;;;;22408980;26;20079;-39
2024/04/11 22:57:48;;;;;;;3.53;2.17;;;8.90;99.90;;;;;;22527306;26;20031;-38
2024/04/11 23:07:57;;;;;;;3.53;2.40;;;8.80;99.90;;;;;;22554158;26;20031;-39
2024/04/11 23:18:07;;;;;;;4.40;2.90;;;8.60;99.90;;;;;;22556303;26;20030;-38
2024/04/11 23:28:09;;;;;;;5.43;2.90;;;8.60;99.90;;;;;;22425183;26;20027;-38
2024/04/11 23:38:13;;;;;;;8.05;3.22;;;8.60;99.90;;;;;;22590117;26;20027;-39
2024/04/11 23:48:16;;;;;;;4.55;2.70;;;8.70;99.90;;;;;;22553184;26;20089;-38
2024/04/11 23:58:20;;;;;;;4.25;2.60;;;8.70;99.90;;;;;;22652600;26;20378;-39
